sensor_id;sensor_type;location;lat;lon;timestamp;P1;durP1;ratioP1;P2;durP2;ratioP2
72517;SDS011;60540;51.178;6.738;2023-04-08T00:01:04;20.42;;;10.02;;
72517;SDS011;60540;51.178;6.738;2023-04-08T00:03:30;19.92;;;9.75;;
72517;SDS011;60540;51.178;6.738;2023-04-08T00:05:56;19.85;;;9.55;;
72517;SDS011;60540;51.178;6.738;2023-04-08T00:08:22;19.58;;;10.40;;
72517;SDS011;60540;51.178;6.738;2023-04-08T00:10:48;16.23;;;8.77;;
72517;SDS011;60540;51.178;6.738;2023-04-08T00:13:14;20.58;;;9.45;;
72517;SDS011;60540;51.178;6.738;2023-04-08T00:15:40;18.77;;;8.60;;
72517;SDS011;60540;51.178;6.738;2023-04-08T00:18:06;18.67;;;9.13;;
72517;SDS011;60540;51.178;6.738;2023-04-08T00:20:32;23.10;;;10.57;;
72517;SDS011;60540;51.178;6.738;2023-04-08T00:22:58;19.83;;;9.45;;
72517;SDS011;60540;51.178;6.738;2023-04-08T00:25:24;19.80;;;9.70;;
72517;SDS011;60540;51.178;6.738;2023-04-08T00:27:49;21.55;;;10.10;;
72517;SDS011;60540;51.178;6.738;2023-04-08T00:30:15;20.65;;;9.90;;
72517;SDS011;60540;51.178;6.738;2023-04-08T00:32:41;20.05;;;9.60;;
72517;SDS011;60540;51.178;6.738;2023-04-08T00:35:07;23.08;;;10.23;;
72517;SDS011;60540;51.178;6.738;2023-04-08T00:37:32;21.27;;;11.18;;
72517;SDS011;60540;51.178;6.738;2023-04-08T00:39:59;20.75;;;9.93;;
72517;SDS011;60540;51.178;6.738;2023-04-08T00:42:25;20.05;;;10.10;;
72517;SDS011;60540;51.178;6.738;2023-04-08T00:44:51;20.27;;;9.63;;
72517;SDS011;60540;51.178;6.738;2023-04-08T00:47:16;21.23;;;10.55;;
72517;SDS011;60540;51.178;6.738;2023-04-08T00:49:43;21.83;;;9.77;;
72517;SDS011;60540;51.178;6.738;2023-04-08T00:52:10;20.88;;;9.50;;
72517;SDS011;60540;51.178;6.738;2023-04-08T00:54:36;22.67;;;10.27;;
72517;SDS011;60540;51.178;6.738;2023-04-08T00:57:02;22.75;;;10.98;;
72517;SDS011;60540;51.178;6.738;2023-04-08T00:59:29;19.75;;;10.40;;
72517;SDS011;60540;51.178;6.738;2023-04-08T01:02:13;19.83;;;9.88;;
72517;SDS011;60540;51.178;6.738;2023-04-08T01:04:43;18.80;;;9.25;;
72517;SDS011;60540;51.178;6.738;2023-04-08T01:07:12;19.38;;;9.27;;
72517;SDS011;60540;51.178;6.738;2023-04-08T01:09:50;18.23;;;9.00;;
72517;SDS011;60540;51.178;6.738;2023-04-08T01:12:20;19.92;;;9.00;;
72517;SDS011;60540;51.178;6.738;2023-04-08T01:14:54;20.48;;;9.65;;
72517;SDS011;60540;51.178;6.738;2023-04-08T01:17:30;18.70;;;9.30;;
72517;SDS011;60540;51.178;6.738;2023-04-08T01:19:57;19.38;;;9.80;;
72517;SDS011;60540;51.178;6.738;2023-04-08T01:22:42;20.65;;;9.50;;
72517;SDS011;60540;51.178;6.738;2023-04-08T01:25:18;16.13;;;8.70;;
72517;SDS011;60540;51.178;6.738;2023-04-08T01:27:45;19.30;;;9.23;;
72517;SDS011;60540;51.178;6.738;2023-04-08T01:30:13;19.83;;;10.00;;
72517;SDS011;60540;51.178;6.738;2023-04-08T01:32:40;18.58;;;10.00;;
72517;SDS011;60540;51.178;6.738;2023-04-08T01:35:07;19.77;;;10.30;;
72517;SDS011;60540;51.178;6.738;2023-04-08T01:37:33;20.73;;;10.95;;
72517;SDS011;60540;51.178;6.738;2023-04-08T01:40:00;20.67;;;10.70;;
72517;SDS011;60540;51.178;6.738;2023-04-08T01:42:27;23.60;;;10.38;;
72517;SDS011;60540;51.178;6.738;2023-04-08T01:44:55;20.85;;;10.43;;
72517;SDS011;60540;51.178;6.738;2023-04-08T01:47:22;18.60;;;9.07;;
72517;SDS011;60540;51.178;6.738;2023-04-08T01:49:52;21.83;;;9.85;;
72517;SDS011;60540;51.178;6.738;2023-04-08T01:52:18;22.23;;;10.23;;
72517;SDS011;60540;51.178;6.738;2023-04-08T01:54:45;21.00;;;10.38;;
72517;SDS011;60540;51.178;6.738;2023-04-08T01:57:13;23.80;;;10.23;;
72517;SDS011;60540;51.178;6.738;2023-04-08T01:59:42;22.30;;;10.52;;
72517;SDS011;60540;51.178;6.738;2023-04-08T02:02:08;23.70;;;11.48;;
72517;SDS011;60540;51.178;6.738;2023-04-08T02:04:35;21.85;;;11.63;;
72517;SDS011;60540;51.178;6.738;2023-04-08T02:07:01;28.63;;;11.70;;
72517;SDS011;60540;51.178;6.738;2023-04-08T02:09:27;24.80;;;11.20;;
72517;SDS011;60540;51.178;6.738;2023-04-08T02:11:53;23.90;;;10.07;;
72517;SDS011;60540;51.178;6.738;2023-04-08T02:14:18;19.58;;;10.00;;
72517;SDS011;60540;51.178;6.738;2023-04-08T02:16:52;25.23;;;11.38;;
72517;SDS011;60540;51.178;6.738;2023-04-08T02:19:23;23.13;;;11.38;;
72517;SDS011;60540;51.178;6.738;2023-04-08T02:21:51;24.95;;;11.07;;
72517;SDS011;60540;51.178;6.738;2023-04-08T02:24:20;20.08;;;10.25;;
72517;SDS011;60540;51.178;6.738;2023-04-08T02:26:46;21.98;;;10.63;;
72517;SDS011;60540;51.178;6.738;2023-04-08T02:29:15;21.98;;;10.70;;
72517;SDS011;60540;51.178;6.738;2023-04-08T02:31:41;22.75;;;10.55;;
72517;SDS011;60540;51.178;6.738;2023-04-08T02:34:11;21.85;;;10.25;;
72517;SDS011;60540;51.178;6.738;2023-04-08T02:36:38;21.00;;;10.40;;
72517;SDS011;60540;51.178;6.738;2023-04-08T02:39:05;24.30;;;10.77;;
72517;SDS011;60540;51.178;6.738;2023-04-08T02:41:31;24.88;;;11.32;;
72517;SDS011;60540;51.178;6.738;2023-04-08T02:43:57;23.40;;;11.73;;
72517;SDS011;60540;51.178;6.738;2023-04-08T02:46:23;24.00;;;11.18;;
72517;SDS011;60540;51.178;6.738;2023-04-08T02:48:48;24.98;;;11.25;;
72517;SDS011;60540;51.178;6.738;2023-04-08T02:51:15;23.58;;;11.00;;
72517;SDS011;60540;51.178;6.738;2023-04-08T02:53:41;24.10;;;10.85;;
72517;SDS011;60540;51.178;6.738;2023-04-08T02:56:09;20.23;;;10.38;;
72517;SDS011;60540;51.178;6.738;2023-04-08T02:58:36;19.48;;;10.18;;
72517;SDS011;60540;51.178;6.738;2023-04-08T03:01:01;25.05;;;11.48;;
72517;SDS011;60540;51.178;6.738;2023-04-08T03:03:27;24.63;;;10.85;;
72517;SDS011;60540;51.178;6.738;2023-04-08T03:05:54;21.95;;;10.90;;
72517;SDS011;60540;51.178;6.738;2023-04-08T03:08:20;26.63;;;12.50;;
72517;SDS011;60540;51.178;6.738;2023-04-08T03:10:46;22.85;;;11.40;;
72517;SDS011;60540;51.178;6.738;2023-04-08T03:15:39;21.83;;;11.15;;
72517;SDS011;60540;51.178;6.738;2023-04-08T03:18:05;23.58;;;11.43;;
72517;SDS011;60540;51.178;6.738;2023-04-08T03:20:31;25.17;;;11.55;;
72517;SDS011;60540;51.178;6.738;2023-04-08T03:22:57;25.00;;;11.15;;
72517;SDS011;60540;51.178;6.738;2023-04-08T03:25:22;25.92;;;11.98;;
72517;SDS011;60540;51.178;6.738;2023-04-08T03:27:48;25.38;;;11.35;;
72517;SDS011;60540;51.178;6.738;2023-04-08T03:30:14;26.58;;;13.07;;
72517;SDS011;60540;51.178;6.738;2023-04-08T03:32:40;33.22;;;14.88;;
72517;SDS011;60540;51.178;6.738;2023-04-08T03:35:06;33.25;;;14.73;;
72517;SDS011;60540;51.178;6.738;2023-04-08T03:37:32;31.60;;;14.43;;
72517;SDS011;60540;51.178;6.738;2023-04-08T03:39:57;34.00;;;14.70;;
72517;SDS011;60540;51.178;6.738;2023-04-08T03:42:23;34.45;;;16.48;;
72517;SDS011;60540;51.178;6.738;2023-04-08T03:44:49;32.28;;;14.93;;
72517;SDS011;60540;51.178;6.738;2023-04-08T03:47:15;30.70;;;14.02;;
72517;SDS011;60540;51.178;6.738;2023-04-08T03:49:40;36.25;;;15.38;;
72517;SDS011;60540;51.178;6.738;2023-04-08T03:52:06;30.48;;;13.73;;
72517;SDS011;60540;51.178;6.738;2023-04-08T03:54:32;30.10;;;14.75;;
72517;SDS011;60540;51.178;6.738;2023-04-08T03:56:58;29.92;;;14.00;;
72517;SDS011;60540;51.178;6.738;2023-04-08T03:59:23;31.70;;;14.60;;
72517;SDS011;60540;51.178;6.738;2023-04-08T04:01:49;38.38;;;15.55;;
72517;SDS011;60540;51.178;6.738;2023-04-08T04:04:15;34.42;;;16.05;;
72517;SDS011;60540;51.178;6.738;2023-04-08T04:06:41;33.33;;;15.00;;
72517;SDS011;60540;51.178;6.738;2023-04-08T04:09:07;31.02;;;15.07;;
72517;SDS011;60540;51.178;6.738;2023-04-08T04:11:33;33.00;;;14.93;;
72517;SDS011;60540;51.178;6.738;2023-04-08T04:13:59;34.40;;;15.93;;
72517;SDS011;60540;51.178;6.738;2023-04-08T04:16:25;41.88;;;17.33;;
72517;SDS011;60540;51.178;6.738;2023-04-08T04:18:51;42.45;;;18.33;;
72517;SDS011;60540;51.178;6.738;2023-04-08T04:21:17;45.00;;;20.85;;
72517;SDS011;60540;51.178;6.738;2023-04-08T04:23:43;46.28;;;20.60;;
72517;SDS011;60540;51.178;6.738;2023-04-08T04:26:09;50.17;;;21.50;;
72517;SDS011;60540;51.178;6.738;2023-04-08T04:28:35;55.10;;;22.85;;
72517;SDS011;60540;51.178;6.738;2023-04-08T04:31:02;55.42;;;24.25;;
72517;SDS011;60540;51.178;6.738;2023-04-08T04:33:28;57.38;;;25.10;;
72517;SDS011;60540;51.178;6.738;2023-04-08T04:35:53;48.55;;;22.50;;
72517;SDS011;60540;51.178;6.738;2023-04-08T04:38:19;56.22;;;24.75;;
72517;SDS011;60540;51.178;6.738;2023-04-08T04:40:45;49.83;;;23.23;;
72517;SDS011;60540;51.178;6.738;2023-04-08T04:43:11;47.55;;;21.48;;
72517;SDS011;60540;51.178;6.738;2023-04-08T04:45:37;49.15;;;22.33;;
72517;SDS011;60540;51.178;6.738;2023-04-08T04:48:02;49.95;;;22.88;;
72517;SDS011;60540;51.178;6.738;2023-04-08T04:50:28;49.08;;;19.95;;
72517;SDS011;60540;51.178;6.738;2023-04-08T04:52:54;46.90;;;21.63;;
72517;SDS011;60540;51.178;6.738;2023-04-08T04:55:20;44.05;;;19.00;;
72517;SDS011;60540;51.178;6.738;2023-04-08T04:57:47;40.25;;;17.38;;
72517;SDS011;60540;51.178;6.738;2023-04-08T05:00:13;42.55;;;18.33;;
72517;SDS011;60540;51.178;6.738;2023-04-08T05:02:39;38.60;;;18.30;;
72517;SDS011;60540;51.178;6.738;2023-04-08T05:05:06;34.42;;;16.77;;
72517;SDS011;60540;51.178;6.738;2023-04-08T05:07:35;39.55;;;17.63;;
72517;SDS011;60540;51.178;6.738;2023-04-08T05:10:01;34.47;;;15.48;;
72517;SDS011;60540;51.178;6.738;2023-04-08T05:12:28;35.35;;;16.83;;
72517;SDS011;60540;51.178;6.738;2023-04-08T05:14:53;30.00;;;14.48;;
72517;SDS011;60540;51.178;6.738;2023-04-08T05:17:19;36.85;;;15.32;;
72517;SDS011;60540;51.178;6.738;2023-04-08T05:19:45;34.05;;;15.93;;
72517;SDS011;60540;51.178;6.738;2023-04-08T05:22:10;33.03;;;16.73;;
72517;SDS011;60540;51.178;6.738;2023-04-08T05:24:36;30.02;;;14.13;;
72517;SDS011;60540;51.178;6.738;2023-04-08T05:27:02;33.35;;;15.07;;
72517;SDS011;60540;51.178;6.738;2023-04-08T05:29:28;31.92;;;14.68;;
72517;SDS011;60540;51.178;6.738;2023-04-08T05:31:53;30.38;;;14.57;;
72517;SDS011;60540;51.178;6.738;2023-04-08T05:34:20;30.88;;;14.75;;
72517;SDS011;60540;51.178;6.738;2023-04-08T05:36:50;29.92;;;14.57;;
72517;SDS011;60540;51.178;6.738;2023-04-08T05:39:17;34.03;;;15.40;;
72517;SDS011;60540;51.178;6.738;2023-04-08T05:41:43;28.60;;;14.50;;
72517;SDS011;60540;51.178;6.738;2023-04-08T05:44:09;30.73;;;14.85;;
72517;SDS011;60540;51.178;6.738;2023-04-08T05:46:36;29.75;;;14.40;;
72517;SDS011;60540;51.178;6.738;2023-04-08T05:49:02;33.50;;;15.48;;
72517;SDS011;60540;51.178;6.738;2023-04-08T05:51:28;29.90;;;13.93;;
72517;SDS011;60540;51.178;6.738;2023-04-08T05:53:53;30.67;;;15.60;;
72517;SDS011;60540;51.178;6.738;2023-04-08T05:56:19;33.03;;;14.93;;
72517;SDS011;60540;51.178;6.738;2023-04-08T05:58:45;33.65;;;16.23;;
72517;SDS011;60540;51.178;6.738;2023-04-08T06:01:11;37.65;;;17.50;;
72517;SDS011;60540;51.178;6.738;2023-04-08T06:03:37;37.08;;;17.52;;
72517;SDS011;60540;51.178;6.738;2023-04-08T06:06:03;33.10;;;15.52;;
72517;SDS011;60540;51.178;6.738;2023-04-08T06:08:28;33.90;;;15.68;;
72517;SDS011;60540;51.178;6.738;2023-04-08T06:10:54;34.53;;;15.43;;
72517;SDS011;60540;51.178;6.738;2023-04-08T06:13:20;33.13;;;15.88;;
72517;SDS011;60540;51.178;6.738;2023-04-08T06:15:46;39.17;;;16.38;;
72517;SDS011;60540;51.178;6.738;2023-04-08T06:20:40;32.13;;;14.15;;
72517;SDS011;60540;51.178;6.738;2023-04-08T06:23:06;34.55;;;15.57;;
72517;SDS011;60540;51.178;6.738;2023-04-08T06:25:31;37.17;;;16.20;;
72517;SDS011;60540;51.178;6.738;2023-04-08T06:27:57;37.03;;;16.02;;
72517;SDS011;60540;51.178;6.738;2023-04-08T06:30:23;35.15;;;16.10;;
72517;SDS011;60540;51.178;6.738;2023-04-08T06:32:48;32.80;;;15.55;;
72517;SDS011;60540;51.178;6.738;2023-04-08T06:35:14;36.30;;;17.45;;
72517;SDS011;60540;51.178;6.738;2023-04-08T06:37:40;35.53;;;16.85;;
72517;SDS011;60540;51.178;6.738;2023-04-08T06:40:06;39.00;;;16.88;;
72517;SDS011;60540;51.178;6.738;2023-04-08T06:42:32;38.67;;;18.33;;
72517;SDS011;60540;51.178;6.738;2023-04-08T06:44:57;40.47;;;17.83;;
72517;SDS011;60540;51.178;6.738;2023-04-08T06:47:23;38.83;;;17.15;;
72517;SDS011;60540;51.178;6.738;2023-04-08T06:49:49;38.40;;;16.98;;
72517;SDS011;60540;51.178;6.738;2023-04-08T06:52:15;33.95;;;15.43;;
72517;SDS011;60540;51.178;6.738;2023-04-08T06:54:41;35.08;;;16.05;;
72517;SDS011;60540;51.178;6.738;2023-04-08T06:57:07;38.35;;;16.42;;
72517;SDS011;60540;51.178;6.738;2023-04-08T06:59:33;34.88;;;16.40;;
72517;SDS011;60540;51.178;6.738;2023-04-08T07:01:58;40.92;;;18.55;;
72517;SDS011;60540;51.178;6.738;2023-04-08T07:04:24;43.30;;;19.08;;
72517;SDS011;60540;51.178;6.738;2023-04-08T07:06:51;41.33;;;19.35;;
72517;SDS011;60540;51.178;6.738;2023-04-08T07:09:16;56.25;;;25.17;;
72517;SDS011;60540;51.178;6.738;2023-04-08T07:11:42;61.50;;;25.88;;
72517;SDS011;60540;51.178;6.738;2023-04-08T07:14:08;57.00;;;24.75;;
72517;SDS011;60540;51.178;6.738;2023-04-08T07:16:34;59.08;;;25.33;;
72517;SDS011;60540;51.178;6.738;2023-04-08T07:18:59;61.22;;;26.45;;
72517;SDS011;60540;51.178;6.738;2023-04-08T07:21:26;62.03;;;26.90;;
72517;SDS011;60540;51.178;6.738;2023-04-08T07:23:52;57.28;;;25.42;;
72517;SDS011;60540;51.178;6.738;2023-04-08T07:26:17;54.08;;;24.92;;
72517;SDS011;60540;51.178;6.738;2023-04-08T07:28:43;49.53;;;21.20;;
72517;SDS011;60540;51.178;6.738;2023-04-08T07:31:13;52.03;;;21.35;;
72517;SDS011;60540;51.178;6.738;2023-04-08T07:33:40;51.72;;;22.20;;
72517;SDS011;60540;51.178;6.738;2023-04-08T07:36:06;50.88;;;21.23;;
72517;SDS011;60540;51.178;6.738;2023-04-08T07:38:33;53.30;;;22.33;;
72517;SDS011;60540;51.178;6.738;2023-04-08T07:40:59;58.88;;;24.08;;
72517;SDS011;60540;51.178;6.738;2023-04-08T07:43:25;55.45;;;23.13;;
72517;SDS011;60540;51.178;6.738;2023-04-08T07:45:51;59.08;;;22.83;;
72517;SDS011;60540;51.178;6.738;2023-04-08T07:48:17;54.22;;;23.55;;
72517;SDS011;60540;51.178;6.738;2023-04-08T07:50:42;57.53;;;22.85;;
72517;SDS011;60540;51.178;6.738;2023-04-08T07:53:10;53.30;;;23.38;;
72517;SDS011;60540;51.178;6.738;2023-04-08T07:55:36;50.90;;;19.98;;
72517;SDS011;60540;51.178;6.738;2023-04-08T07:58:03;50.42;;;20.42;;
72517;SDS011;60540;51.178;6.738;2023-04-08T08:00:29;51.58;;;20.88;;
72517;SDS011;60540;51.178;6.738;2023-04-08T08:02:55;45.45;;;19.45;;
72517;SDS011;60540;51.178;6.738;2023-04-08T08:05:21;51.63;;;19.55;;
72517;SDS011;60540;51.178;6.738;2023-04-08T08:07:47;39.83;;;17.73;;
72517;SDS011;60540;51.178;6.738;2023-04-08T08:10:12;45.25;;;18.77;;
72517;SDS011;60540;51.178;6.738;2023-04-08T08:12:38;47.60;;;19.40;;
72517;SDS011;60540;51.178;6.738;2023-04-08T08:15:04;45.38;;;20.73;;
72517;SDS011;60540;51.178;6.738;2023-04-08T08:17:30;46.75;;;21.02;;
72517;SDS011;60540;51.178;6.738;2023-04-08T08:19:58;49.10;;;22.08;;
72517;SDS011;60540;51.178;6.738;2023-04-08T08:22:24;49.67;;;24.90;;
72517;SDS011;60540;51.178;6.738;2023-04-08T08:24:56;54.65;;;26.42;;
72517;SDS011;60540;51.178;6.738;2023-04-08T08:27:22;52.33;;;24.98;;
72517;SDS011;60540;51.178;6.738;2023-04-08T08:29:48;36.00;;;17.65;;
72517;SDS011;60540;51.178;6.738;2023-04-08T08:32:14;32.47;;;15.65;;
72517;SDS011;60540;51.178;6.738;2023-04-08T08:34:40;34.10;;;14.98;;
72517;SDS011;60540;51.178;6.738;2023-04-08T08:37:05;27.42;;;14.20;;
72517;SDS011;60540;51.178;6.738;2023-04-08T08:39:31;25.85;;;13.57;;
72517;SDS011;60540;51.178;6.738;2023-04-08T08:41:57;22.83;;;11.88;;
72517;SDS011;60540;51.178;6.738;2023-04-08T08:44:23;21.08;;;11.48;;
72517;SDS011;60540;51.178;6.738;2023-04-08T08:46:49;20.98;;;11.50;;
72517;SDS011;60540;51.178;6.738;2023-04-08T08:49:15;18.48;;;10.95;;
72517;SDS011;60540;51.178;6.738;2023-04-08T08:51:41;18.20;;;10.43;;
72517;SDS011;60540;51.178;6.738;2023-04-08T08:54:10;19.70;;;10.13;;
72517;SDS011;60540;51.178;6.738;2023-04-08T08:56:37;19.77;;;10.85;;
72517;SDS011;60540;51.178;6.738;2023-04-08T08:59:03;18.05;;;10.15;;
72517;SDS011;60540;51.178;6.738;2023-04-08T09:06:34;15.57;;;9.65;;
72517;SDS011;60540;51.178;6.738;2023-04-08T09:11:28;20.58;;;10.98;;
72517;SDS011;60540;51.178;6.738;2023-04-08T09:13:54;17.65;;;10.07;;
72517;SDS011;60540;51.178;6.738;2023-04-08T09:18:48;19.98;;;11.25;;
72517;SDS011;60540;51.178;6.738;2023-04-08T09:21:15;23.25;;;11.98;;
72517;SDS011;60540;51.178;6.738;2023-04-08T09:26:09;29.42;;;15.43;;
72517;SDS011;60540;51.178;6.738;2023-04-08T09:28:36;36.00;;;17.50;;
72517;SDS011;60540;51.178;6.738;2023-04-08T09:31:22;34.28;;;17.05;;
72517;SDS011;60540;51.178;6.738;2023-04-08T09:33:55;35.35;;;18.10;;
72517;SDS011;60540;51.178;6.738;2023-04-08T09:36:22;35.65;;;18.15;;
72517;SDS011;60540;51.178;6.738;2023-04-08T09:38:48;35.85;;;19.95;;
72517;SDS011;60540;51.178;6.738;2023-04-08T09:41:15;38.60;;;19.77;;
72517;SDS011;60540;51.178;6.738;2023-04-08T09:43:48;36.33;;;18.63;;
72517;SDS011;60540;51.178;6.738;2023-04-08T09:46:16;32.20;;;17.70;;
72517;SDS011;60540;51.178;6.738;2023-04-08T09:49:17;36.20;;;18.75;;
72517;SDS011;60540;51.178;6.738;2023-04-08T09:54:33;38.50;;;20.63;;
72517;SDS011;60540;51.178;6.738;2023-04-08T09:57:15;45.03;;;21.85;;
72517;SDS011;60540;51.178;6.738;2023-04-08T09:59:44;44.72;;;23.75;;
72517;SDS011;60540;51.178;6.738;2023-04-08T10:02:18;43.85;;;21.17;;
72517;SDS011;60540;51.178;6.738;2023-04-08T10:04:48;46.92;;;22.20;;
72517;SDS011;60540;51.178;6.738;2023-04-08T10:07:15;46.03;;;22.20;;
72517;SDS011;60540;51.178;6.738;2023-04-08T10:09:41;47.80;;;23.40;;
72517;SDS011;60540;51.178;6.738;2023-04-08T10:12:07;46.70;;;22.48;;
72517;SDS011;60540;51.178;6.738;2023-04-08T10:14:33;51.17;;;22.77;;
72517;SDS011;60540;51.178;6.738;2023-04-08T10:19:52;50.33;;;24.92;;
72517;SDS011;60540;51.178;6.738;2023-04-08T10:27:43;51.28;;;24.63;;
72517;SDS011;60540;51.178;6.738;2023-04-08T10:32:56;47.33;;;23.70;;
72517;SDS011;60540;51.178;6.738;2023-04-08T10:35:29;48.70;;;23.70;;
72517;SDS011;60540;51.178;6.738;2023-04-08T10:37:56;51.30;;;24.88;;
72517;SDS011;60540;51.178;6.738;2023-04-08T10:42:58;43.95;;;21.85;;
72517;SDS011;60540;51.178;6.738;2023-04-08T10:45:24;42.97;;;21.52;;
72517;SDS011;60540;51.178;6.738;2023-04-08T10:47:50;43.42;;;23.05;;
72517;SDS011;60540;51.178;6.738;2023-04-08T10:50:19;44.30;;;22.30;;
72517;SDS011;60540;51.178;6.738;2023-04-08T10:52:52;44.65;;;21.48;;
72517;SDS011;60540;51.178;6.738;2023-04-08T10:55:22;44.72;;;21.50;;
72517;SDS011;60540;51.178;6.738;2023-04-08T10:57:51;48.58;;;23.05;;
72517;SDS011;60540;51.178;6.738;2023-04-08T11:00:18;46.05;;;22.55;;
72517;SDS011;60540;51.178;6.738;2023-04-08T11:03:03;45.97;;;22.92;;
72517;SDS011;60540;51.178;6.738;2023-04-08T11:05:29;49.92;;;24.63;;
72517;SDS011;60540;51.178;6.738;2023-04-08T11:07:56;47.42;;;23.13;;
72517;SDS011;60540;51.178;6.738;2023-04-08T11:10:23;46.65;;;22.45;;
72517;SDS011;60540;51.178;6.738;2023-04-08T11:12:49;49.25;;;22.58;;
72517;SDS011;60540;51.178;6.738;2023-04-08T11:15:16;48.00;;;23.00;;
72517;SDS011;60540;51.178;6.738;2023-04-08T11:17:42;48.65;;;23.90;;
72517;SDS011;60540;51.178;6.738;2023-04-08T11:22:35;49.03;;;23.08;;
72517;SDS011;60540;51.178;6.738;2023-04-08T11:25:01;43.60;;;21.85;;
72517;SDS011;60540;51.178;6.738;2023-04-08T11:27:27;53.05;;;23.27;;
72517;SDS011;60540;51.178;6.738;2023-04-08T11:29:56;42.22;;;21.30;;
72517;SDS011;60540;51.178;6.738;2023-04-08T11:32:21;44.28;;;20.75;;
72517;SDS011;60540;51.178;6.738;2023-04-08T11:34:51;44.03;;;22.70;;
72517;SDS011;60540;51.178;6.738;2023-04-08T11:37:17;43.22;;;20.10;;
72517;SDS011;60540;51.178;6.738;2023-04-08T11:39:43;44.22;;;20.38;;
72517;SDS011;60540;51.178;6.738;2023-04-08T11:42:09;48.55;;;20.92;;
72517;SDS011;60540;51.178;6.738;2023-04-08T11:44:51;45.65;;;21.70;;
72517;SDS011;60540;51.178;6.738;2023-04-08T11:47:16;42.10;;;19.73;;
72517;SDS011;60540;51.178;6.738;2023-04-08T11:49:43;39.55;;;19.13;;
72517;SDS011;60540;51.178;6.738;2023-04-08T11:52:10;41.17;;;18.58;;
72517;SDS011;60540;51.178;6.738;2023-04-08T11:54:39;38.47;;;18.52;;
72517;SDS011;60540;51.178;6.738;2023-04-08T11:57:07;35.40;;;18.02;;
72517;SDS011;60540;51.178;6.738;2023-04-08T11:59:36;40.80;;;19.13;;
72517;SDS011;60540;51.178;6.738;2023-04-08T12:02:02;35.75;;;19.17;;
72517;SDS011;60540;51.178;6.738;2023-04-08T12:04:28;35.85;;;18.05;;
72517;SDS011;60540;51.178;6.738;2023-04-08T12:06:54;32.58;;;17.38;;
72517;SDS011;60540;51.178;6.738;2023-04-08T12:09:21;36.30;;;19.85;;
72517;SDS011;60540;51.178;6.738;2023-04-08T12:11:46;37.75;;;19.08;;
72517;SDS011;60540;51.178;6.738;2023-04-08T12:14:12;35.42;;;18.42;;
72517;SDS011;60540;51.178;6.738;2023-04-08T12:16:38;39.22;;;18.52;;
72517;SDS011;60540;51.178;6.738;2023-04-08T12:19:04;37.35;;;17.77;;
72517;SDS011;60540;51.178;6.738;2023-04-08T12:21:30;36.15;;;19.02;;
72517;SDS011;60540;51.178;6.738;2023-04-08T12:23:57;32.10;;;17.20;;
72517;SDS011;60540;51.178;6.738;2023-04-08T12:26:22;25.15;;;14.95;;
72517;SDS011;60540;51.178;6.738;2023-04-08T12:28:48;24.90;;;14.75;;
72517;SDS011;60540;51.178;6.738;2023-04-08T12:31:14;23.65;;;13.43;;
72517;SDS011;60540;51.178;6.738;2023-04-08T12:33:40;15.60;;;9.52;;
72517;SDS011;60540;51.178;6.738;2023-04-08T12:36:06;9.48;;;5.43;;
72517;SDS011;60540;51.178;6.738;2023-04-08T12:38:32;8.50;;;5.50;;
72517;SDS011;60540;51.178;6.738;2023-04-08T12:40:58;7.53;;;4.78;;
72517;SDS011;60540;51.178;6.738;2023-04-08T12:43:23;6.97;;;4.13;;
72517;SDS011;60540;51.178;6.738;2023-04-08T12:45:50;6.53;;;3.83;;
72517;SDS011;60540;51.178;6.738;2023-04-08T12:50:42;8.05;;;3.92;;
72517;SDS011;60540;51.178;6.738;2023-04-08T12:53:07;6.88;;;4.05;;
72517;SDS011;60540;51.178;6.738;2023-04-08T12:55:33;8.88;;;3.95;;
72517;SDS011;60540;51.178;6.738;2023-04-08T12:57:59;8.35;;;3.90;;
72517;SDS011;60540;51.178;6.738;2023-04-08T13:00:25;5.40;;;3.38;;
72517;SDS011;60540;51.178;6.738;2023-04-08T13:02:51;7.82;;;3.50;;
72517;SDS011;60540;51.178;6.738;2023-04-08T13:05:16;6.03;;;3.30;;
72517;SDS011;60540;51.178;6.738;2023-04-08T13:07:42;4.95;;;3.00;;
72517;SDS011;60540;51.178;6.738;2023-04-08T13:10:08;7.53;;;2.88;;
72517;SDS011;60540;51.178;6.738;2023-04-08T13:12:34;6.22;;;3.08;;
72517;SDS011;60540;51.178;6.738;2023-04-08T13:15:00;6.63;;;3.85;;
72517;SDS011;60540;51.178;6.738;2023-04-08T13:17:26;6.13;;;3.47;;
72517;SDS011;60540;51.178;6.738;2023-04-08T13:19:52;6.13;;;3.88;;
72517;SDS011;60540;51.178;6.738;2023-04-08T13:22:18;6.95;;;3.95;;
72517;SDS011;60540;51.178;6.738;2023-04-08T13:24:43;7.85;;;4.22;;
72517;SDS011;60540;51.178;6.738;2023-04-08T13:27:09;9.65;;;5.07;;
72517;SDS011;60540;51.178;6.738;2023-04-08T13:29:35;6.88;;;3.97;;
72517;SDS011;60540;51.178;6.738;2023-04-08T13:32:01;6.50;;;3.83;;
72517;SDS011;60540;51.178;6.738;2023-04-08T13:34:26;9.23;;;5.07;;
72517;SDS011;60540;51.178;6.738;2023-04-08T13:36:52;11.13;;;4.82;;
72517;SDS011;60540;51.178;6.738;2023-04-08T13:39:18;9.00;;;5.45;;
72517;SDS011;60540;51.178;6.738;2023-04-08T13:41:44;9.38;;;5.20;;
72517;SDS011;60540;51.178;6.738;2023-04-08T13:44:10;10.52;;;5.93;;
72517;SDS011;60540;51.178;6.738;2023-04-08T13:46:36;11.50;;;5.88;;
72517;SDS011;60540;51.178;6.738;2023-04-08T13:49:01;7.90;;;5.00;;
72517;SDS011;60540;51.178;6.738;2023-04-08T13:51:27;10.32;;;5.40;;
72517;SDS011;60540;51.178;6.738;2023-04-08T13:53:53;9.80;;;5.15;;
72517;SDS011;60540;51.178;6.738;2023-04-08T13:56:19;9.43;;;5.95;;
72517;SDS011;60540;51.178;6.738;2023-04-08T13:58:45;8.27;;;4.57;;
72517;SDS011;60540;51.178;6.738;2023-04-08T14:01:11;9.90;;;5.78;;
72517;SDS011;60540;51.178;6.738;2023-04-08T14:03:37;9.38;;;5.53;;
72517;SDS011;60540;51.178;6.738;2023-04-08T14:06:03;9.60;;;5.30;;
72517;SDS011;60540;51.178;6.738;2023-04-08T14:08:28;8.60;;;5.07;;
72517;SDS011;60540;51.178;6.738;2023-04-08T14:10:55;10.73;;;5.57;;
72517;SDS011;60540;51.178;6.738;2023-04-08T14:13:21;8.45;;;5.45;;
72517;SDS011;60540;51.178;6.738;2023-04-08T14:15:47;9.85;;;5.78;;
72517;SDS011;60540;51.178;6.738;2023-04-08T14:18:14;9.38;;;5.60;;
72517;SDS011;60540;51.178;6.738;2023-04-08T14:20:42;9.35;;;5.80;;
72517;SDS011;60540;51.178;6.738;2023-04-08T14:23:08;9.50;;;6.22;;
72517;SDS011;60540;51.178;6.738;2023-04-08T14:25:34;9.55;;;5.55;;
72517;SDS011;60540;51.178;6.738;2023-04-08T14:28:00;9.30;;;5.72;;
72517;SDS011;60540;51.178;6.738;2023-04-08T14:30:25;9.75;;;6.07;;
72517;SDS011;60540;51.178;6.738;2023-04-08T14:32:51;10.15;;;6.03;;
72517;SDS011;60540;51.178;6.738;2023-04-08T14:35:17;9.07;;;6.00;;
72517;SDS011;60540;51.178;6.738;2023-04-08T14:37:43;10.35;;;5.80;;
72517;SDS011;60540;51.178;6.738;2023-04-08T14:40:09;10.05;;;6.05;;
72517;SDS011;60540;51.178;6.738;2023-04-08T14:42:35;9.18;;;5.78;;
72517;SDS011;60540;51.178;6.738;2023-04-08T14:45:01;9.45;;;6.40;;
72517;SDS011;60540;51.178;6.738;2023-04-08T14:47:27;9.63;;;6.45;;
72517;SDS011;60540;51.178;6.738;2023-04-08T14:49:53;9.90;;;6.97;;
72517;SDS011;60540;51.178;6.738;2023-04-08T14:52:19;12.25;;;7.00;;
72517;SDS011;60540;51.178;6.738;2023-04-08T14:54:45;9.98;;;6.20;;
72517;SDS011;60540;51.178;6.738;2023-04-08T14:57:12;10.98;;;7.03;;
72517;SDS011;60540;51.178;6.738;2023-04-08T14:59:38;11.45;;;7.32;;
72517;SDS011;60540;51.178;6.738;2023-04-08T15:02:03;12.57;;;7.53;;